Grand Narrows, Canada
Current Conditions -  °F | °C
As of 3:00 PM on Tuesday 21 Oct 2014 (Local Time) from CYPD Reporting Station
Few Clouds Few Clouds  
Wind Chill: 55°   Ceiling: Unl
Heat Index: 55°   Visibility: 9mi
Dew Point: 36°   Wind: 8mph
Humidity: 47%   Direction: 300°WNW
Pressure: 30.15"   Gusts: NA
Location:  45.95°N, 60.78°W
Report Text: CYPD 211800Z AUTO 30007KT 270V330 9SM FEW230 13/02 A3015 RMK SLP212
Loading
Personal Weather Stations






























Interactive Weather Map New forecast layout! Learn more

10-Day Weather Forecast

Advertisements
Track Severe Weather on mobile